Time;durP1;ratioP1;P1;durP2;ratioP2;P2;SDS_P1;SDS_P2;PMS_P1;PMS_P2;Temp;Humidity;BMP_temperature;BMP_pressure;BME280_temperature;BME280_humidity;BME280_pressure;Samples;Min_cycle;Max_cycle;Signal;HPM_P1;HPM_P2
2023/08/04 00:00:31;;;;;;;0.15;0.15;;;20.70;99.90;;;;;;5059730;28;20031;-79
2023/08/04 00:02:57;;;;;;;0.20;0.20;;;20.60;99.90;;;;;;5059426;28;20483;-83
2023/08/04 00:05:23;;;;;;;0.10;0.10;;;20.60;99.90;;;;;;5041600;28;20021;-83
2023/08/04 00:07:49;;;;;;;0.10;0.10;;;20.50;99.90;;;;;;5060086;28;20075;-84
2023/08/04 00:10:15;;;;;;;0.10;0.10;;;20.50;99.90;;;;;;5040198;28;20518;-84
2023/08/04 00:12:41;;;;;;;0.10;0.10;;;20.40;99.90;;;;;;5041364;28;20036;-79
2023/08/04 00:15:07;;;;;;;2.25;2.15;;;20.40;99.90;;;;;;5059372;28;20031;-80
2023/08/04 00:17:35;;;;;;;0.10;0.10;;;;;;;;;;5041259;28;20025;-78
2023/08/04 00:20:11;;;;;;;1.25;1.17;;;20.40;99.90;;;;;;5059587;28;20372;-78
2023/08/04 00:22:37;;;;;;;0.10;0.10;;;20.30;99.90;;;;;;5059537;28;20029;-81
2023/08/04 00:25:07;;;;;;;0.10;0.10;;;20.30;99.90;;;;;;5059515;28;20021;-83
2023/08/04 00:27:33;;;;;;;0.10;0.10;;;20.30;99.90;;;;;;5059439;28;20020;-82
2023/08/04 00:29:59;;;;;;;0.10;0.10;;;20.20;99.90;;;;;;5057310;28;20033;-81
2023/08/04 00:32:26;;;;;;;0.10;0.10;;;20.20;99.90;;;;;;5059071;28;20543;-77
2023/08/04 00:34:52;;;;;;;3.05;2.78;;;20.10;99.90;;;;;;5058865;28;20059;-79
2023/08/04 00:37:18;;;;;;;0.10;0.10;;;20.10;99.90;;;;;;5040834;28;20021;-79
2023/08/04 00:39:44;;;;;;;0.10;0.10;;;20.10;99.90;;;;;;5058907;28;20282;-79
2023/08/04 00:42:53;;;;;;;0.10;0.10;;;20.10;99.90;;;;;;5058768;28;20063;-76
2023/08/04 00:45:44;;;;;;;0.10;0.10;;;20.00;99.90;;;;;;5040081;28;20479;-76
2023/08/04 00:48:10;;;;;;;0.10;0.10;;;;;;;;;;5058343;28;20111;-79
2023/08/04 00:50:36;;;;;;;0.10;0.10;;;;;;;;;;5040256;28;20364;-77
2023/08/04 00:53:02;;;;;;;0.93;0.90;;;19.90;99.90;;;;;;5040569;28;20025;-76
2023/08/04 00:55:28;;;;;;;0.10;0.10;;;20.00;99.90;;;;;;5058551;28;20033;-75
2023/08/04 00:57:56;;;;;;;0.13;0.13;;;19.90;99.90;;;;;;5058815;28;20115;-78
2023/08/04 01:00:22;;;;;;;0.20;0.20;;;19.90;99.90;;;;;;5058430;28;20025;-80
2023/08/04 01:02:48;;;;;;;0.57;0.57;;;19.80;99.90;;;;;;5058478;28;20226;-80
2023/08/04 01:05:13;;;;;;;0.10;0.10;;;19.80;99.90;;;;;;5040422;28;20321;-76
2023/08/04 01:07:56;;;;;;;0.10;0.10;;;19.80;99.90;;;;;;5040378;28;20113;-75
2023/08/04 01:10:35;;;;;;;0.10;0.10;;;19.80;99.90;;;;;;5040637;28;20304;-82
2023/08/04 01:13:05;;;;;;;0.10;0.10;;;19.80;99.90;;;;;;5058282;28;20017;-82
2023/08/04 01:15:31;;;;;;;0.10;0.10;;;19.70;99.90;;;;;;5040208;28;20044;-75
2023/08/04 01:17:58;;;;;;;0.10;0.10;;;19.70;99.90;;;;;;5058475;28;20027;-78
2023/08/04 01:20:27;;;;;;;0.10;0.10;;;19.60;99.90;;;;;;5058460;28;20016;-83
2023/08/04 01:22:54;;;;;;;0.10;0.10;;;20.50;99.90;;;;;;5058151;28;20345;-78
2023/08/04 01:25:24;;;;;;;0.10;0.10;;;19.70;99.90;;;;;;5058288;28;20548;-81
2023/08/04 01:28:04;;;;;;;0.10;0.10;;;19.70;99.90;;;;;;5058462;28;20572;-79
2023/08/04 01:30:31;;;;;;;0.17;0.17;;;19.60;99.90;;;;;;5058710;28;20024;-83
2023/08/04 01:32:58;;;;;;;0.10;0.10;;;19.70;99.90;;;;;;5058026;28;21390;-80
2023/08/04 01:35:23;;;;;;;0.10;0.10;;;19.60;99.90;;;;;;5058655;28;20024;-85
2023/08/04 01:37:49;;;;;;;0.40;0.40;;;19.60;99.90;;;;;;5040903;28;20028;-81
2023/08/04 01:40:15;;;;;;;0.10;0.10;;;19.60;99.90;;;;;;5058398;28;20370;-77
2023/08/04 01:42:41;;;;;;;0.10;0.10;;;19.50;99.90;;;;;;5057796;28;20344;-79
2023/08/04 01:45:07;;;;;;;0.10;0.10;;;19.60;99.90;;;;;;5057873;28;20013;-79
2023/08/04 01:47:33;;;;;;;0.10;0.10;;;19.60;99.90;;;;;;5057806;28;20025;-78
2023/08/04 01:49:59;;;;;;;0.10;0.10;;;19.60;99.90;;;;;;5057664;28;20530;-78
2023/08/04 01:52:25;;;;;;;0.10;0.10;;;19.50;99.90;;;;;;5057610;28;20498;-78
2023/08/04 01:54:51;;;;;;;0.40;0.40;;;18.80;99.90;;;;;;5057470;28;20024;-81
2023/08/04 01:57:17;;;;;;;0.17;0.17;;;19.50;99.90;;;;;;5057897;28;20036;-84
2023/08/04 01:59:42;;;;;;;0.10;0.10;;;19.30;99.90;;;;;;5057789;28;20515;-85
2023/08/04 02:02:08;;;;;;;0.10;0.10;;;19.40;99.90;;;;;;5057438;28;20116;-79
2023/08/04 02:04:34;;;;;;;0.10;0.10;;;19.40;99.90;;;;;;5057569;28;20502;-82
2023/08/04 02:07:00;;;;;;;0.10;0.10;;;19.40;99.90;;;;;;5057379;28;20029;-82
2023/08/04 02:09:29;;;;;;;0.10;0.10;;;19.30;99.90;;;;;;5057419;28;20017;-87
2023/08/04 02:11:55;;;;;;;0.10;0.10;;;19.30;99.90;;;;;;5057614;28;20538;-83
2023/08/04 02:14:21;;;;;;;0.10;0.10;;;19.30;99.90;;;;;;5039115;28;20177;-84
2023/08/04 02:16:47;;;;;;;1.85;1.75;;;19.30;99.90;;;;;;5057515;28;20498;-77
2023/08/04 02:19:13;;;;;;;0.10;0.10;;;19.30;99.90;;;;;;5057730;28;20098;-83
2023/08/04 02:21:39;;;;;;;0.10;0.10;;;19.30;99.90;;;;;;5057584;28;20028;-79
2023/08/04 02:24:05;;;;;;;0.10;0.10;;;19.30;99.90;;;;;;5057686;28;20717;-81
2023/08/04 02:26:31;;;;;;;0.10;0.10;;;19.20;99.90;;;;;;5039500;28;20321;-75
2023/08/04 02:28:57;;;;;;;0.05;0.05;;;19.10;99.90;;;;;;5057789;28;20082;-79
2023/08/04 02:31:27;;;;;;;0.10;0.10;;;19.20;99.90;;;;;;5057621;28;20624;-76
2023/08/04 02:33:54;;;;;;;0.47;0.47;;;19.20;99.90;;;;;;5059127;28;20045;-86
2023/08/04 02:36:20;;;;;;;0.15;0.15;;;19.20;99.90;;;;;;5043706;28;20039;-84
2023/08/04 02:38:46;;;;;;;0.10;0.10;;;22.30;99.90;;;;;;5062007;28;20288;-85
2023/08/04 02:41:12;;;;;;;0.10;0.10;;;19.30;99.90;;;;;;5043645;28;20589;-84
2023/08/04 02:43:38;;;;;;;0.77;0.77;;;19.20;99.90;;;;;;5061856;28;20258;-83
2023/08/04 02:46:04;;;;;;;0.10;0.10;;;19.20;99.90;;;;;;5061908;28;20016;-79
2023/08/04 02:48:31;;;;;;;0.10;0.10;;;19.20;99.90;;;;;;5061599;28;20095;-80
2023/08/04 02:51:00;;;;;;;0.10;0.10;;;19.30;99.90;;;;;;5045332;28;20020;-87
2023/08/04 02:53:26;;;;;;;0.10;0.10;;;19.10;99.90;;;;;;5061991;28;20020;-89
2023/08/04 02:55:52;;;;;;;0.10;0.10;;;19.20;99.90;;;;;;5062078;28;20016;-85
2023/08/04 02:58:17;;;;;;;0.08;0.08;;;19.50;99.90;;;;;;5044605;28;20173;-84
2023/08/04 03:00:43;;;;;;;0.10;0.10;;;19.70;99.90;;;;;;5044362;28;20039;-87
2023/08/04 03:03:09;;;;;;;1.00;1.00;;;19.80;99.90;;;;;;5061996;28;20040;-81
2023/08/04 03:05:35;;;;;;;1.77;1.67;;;20.10;99.90;;;;;;5061813;28;20225;-86
2023/08/04 03:08:01;;;;;;;0.10;0.10;;;20.30;99.90;;;;;;5061273;28;20025;-79
2023/08/04 03:10:27;;;;;;;0.10;0.10;;;20.00;99.90;;;;;;5061218;28;20031;-83
2023/08/04 03:12:52;;;;;;;0.10;0.10;;;19.80;99.90;;;;;;5060693;28;20253;-76
2023/08/04 03:15:18;;;;;;;0.10;0.10;;;19.80;99.90;;;;;;5042646;28;20499;-79
2023/08/04 03:17:44;;;;;;;0.40;0.40;;;16.50;99.90;;;;;;5060808;28;20221;-78
2023/08/04 03:20:10;;;;;;;0.25;0.25;;;19.40;99.90;;;;;;5060603;28;20457;-75
2023/08/04 03:22:36;;;;;;;0.20;0.20;;;19.30;99.90;;;;;;5060368;28;20047;-81
2023/08/04 03:25:02;;;;;;;0.10;0.10;;;19.10;99.90;;;;;;5060161;28;20025;-78
2023/08/04 03:27:28;;;;;;;0.10;0.10;;;19.10;99.90;;;;;;5042426;28;20040;-76
2023/08/04 03:29:54;;;;;;;0.10;0.10;;;19.00;99.90;;;;;;5060403;28;20085;-76
2023/08/04 03:32:19;;;;;;;0.10;0.10;;;18.90;99.90;;;;;;5060445;28;20254;-80
2023/08/04 03:34:45;;;;;;;0.10;0.10;;;19.00;99.90;;;;;;5041994;28;20127;-79
2023/08/04 03:37:11;;;;;;;0.47;0.47;;;18.90;99.90;;;;;;5060243;28;20032;-78
2023/08/04 03:39:37;;;;;;;0.17;0.17;;;18.90;99.90;;;;;;5060283;28;20013;-80
2023/08/04 03:42:03;;;;;;;0.10;0.10;;;18.90;99.90;;;;;;5042175;28;20036;-84
2023/08/04 03:44:28;;;;;;;0.10;0.10;;;19.00;99.90;;;;;;5059720;28;20301;-76
2023/08/04 03:46:54;;;;;;;0.10;0.10;;;18.90;99.90;;;;;;5041262;28;20111;-75
2023/08/04 03:49:20;;;;;;;0.10;0.10;;;17.20;99.90;;;;;;5042116;28;20453;-82
2023/08/04 03:51:46;;;;;;;0.40;0.40;;;18.80;99.90;;;;;;5059823;28;20514;-78
2023/08/04 03:54:11;;;;;;;0.38;0.38;;;18.80;99.90;;;;;;5059880;28;20282;-77
2023/08/04 03:56:37;;;;;;;0.20;0.20;;;18.70;99.90;;;;;;5060172;28;20652;-75
2023/08/04 03:59:03;;;;;;;0.10;0.10;;;18.60;99.90;;;;;;5059980;28;20026;-81
2023/08/04 04:01:28;;;;;;;1.75;1.65;;;18.00;99.90;;;;;;5059761;28;20024;-82
2023/08/04 04:03:54;;;;;;;0.10;0.10;;;18.50;99.90;;;;;;5059788;28;20437;-78
2023/08/04 04:06:20;;;;;;;0.10;0.10;;;18.60;99.90;;;;;;5060041;28;20021;-79
2023/08/04 04:08:46;;;;;;;0.10;0.10;;;18.60;99.90;;;;;;5059941;28;20434;-78
2023/08/04 04:11:12;;;;;;;0.10;0.10;;;18.60;99.90;;;;;;5059414;28;20021;-78
2023/08/04 04:13:37;;;;;;;0.10;0.10;;;18.50;99.90;;;;;;5041626;28;20055;-75
2023/08/04 04:16:03;;;;;;;0.10;0.10;;;18.60;99.90;;;;;;5059262;28;20039;-76
2023/08/04 04:18:29;;;;;;;0.28;0.28;;;18.50;99.90;;;;;;5040808;28;20533;-75
2023/08/04 04:20:55;;;;;;;0.25;0.25;;;18.40;99.90;;;;;;5058993;28;20032;-76
2023/08/04 04:23:20;;;;;;;0.10;0.10;;;18.40;99.90;;;;;;5040777;28;20392;-76
2023/08/04 04:25:46;;;;;;;0.20;0.20;;;18.40;99.90;;;;;;5040923;28;20454;-77
2023/08/04 04:28:12;;;;;;;0.10;0.10;;;18.40;99.90;;;;;;5058966;28;20028;-79
2023/08/04 04:30:38;;;;;;;0.10;0.10;;;18.40;99.90;;;;;;5058830;28;20419;-76
2023/08/04 04:33:03;;;;;;;0.20;0.20;;;18.40;99.90;;;;;;5058501;28;20075;-81
2023/08/04 04:35:29;;;;;;;0.32;0.32;;;18.40;99.90;;;;;;5059009;28;20074;-76
2023/08/04 04:37:55;;;;;;;0.35;0.35;;;18.40;99.90;;;;;;5058743;28;20028;-78
2023/08/04 04:40:21;;;;;;;0.10;0.10;;;18.40;99.90;;;;;;5058686;28;20059;-80
2023/08/04 04:42:46;;;;;;;0.10;0.10;;;18.50;99.90;;;;;;5058675;28;20344;-76
2023/08/04 04:45:12;;;;;;;0.10;0.10;;;18.50;99.90;;;;;;5058778;28;20021;-76
2023/08/04 04:47:38;;;;;;;0.10;0.10;;;18.50;99.90;;;;;;5058527;28;20024;-76
2023/08/04 04:50:04;;;;;;;0.10;0.10;;;18.60;99.90;;;;;;5058582;28;20035;-80
2023/08/04 04:52:32;;;;;;;0.20;0.20;;;18.60;99.90;;;;;;5058582;28;20066;-80
2023/08/04 04:54:59;;;;;;;0.10;0.10;;;18.70;99.90;;;;;;5058463;28;20032;-80
2023/08/04 04:57:25;;;;;;;0.10;0.10;;;18.70;99.90;;;;;;5058416;28;20052;-77
2023/08/04 04:59:51;;;;;;;0.10;0.10;;;18.70;99.90;;;;;;5040422;28;20037;-77
2023/08/04 05:02:17;;;;;;;0.10;0.10;;;18.80;99.90;;;;;;5039962;28;20340;-78
2023/08/04 05:04:43;;;;;;;0.10;0.10;;;16.20;99.90;;;;;;5058226;28;20505;-77
2023/08/04 05:07:09;;;;;;;0.10;0.10;;;19.00;99.90;;;;;;5058153;28;20059;-79
2023/08/04 05:09:35;;;;;;;0.13;0.13;;;19.00;99.90;;;;;;5058110;28;20066;-77
2023/08/04 05:12:01;;;;;;;0.10;0.10;;;19.10;99.90;;;;;;5058325;28;20034;-79
2023/08/04 05:14:27;;;;;;;0.10;0.10;;;19.20;99.90;;;;;;5039847;28;20213;-76
2023/08/04 05:16:53;;;;;;;0.10;0.10;;;19.20;99.90;;;;;;5057846;28;20305;-80
2023/08/04 05:19:18;;;;;;;0.10;0.10;;;19.30;99.90;;;;;;5039853;28;20036;-80
2023/08/04 05:21:44;;;;;;;0.00;0.00;;;19.40;99.90;;;;;;5057804;28;20024;-76
2023/08/04 05:24:10;;;;;;;0.10;0.10;;;19.40;99.90;;;;;;5057423;28;20023;-77
2023/08/04 05:26:35;;;;;;;0.20;0.20;;;19.60;99.90;;;;;;5057473;28;20040;-76
2023/08/04 05:29:01;;;;;;;0.13;0.13;;;19.80;99.90;;;;;;5057601;28;20322;-75
2023/08/04 05:31:27;;;;;;;0.10;0.10;;;20.20;99.90;;;;;;5057498;28;20028;-77
2023/08/04 05:33:54;;;;;;;4.28;1.75;;;20.40;99.90;;;;;;5056923;28;20317;-76
2023/08/04 05:36:20;;;;;;;0.20;0.20;;;20.90;99.90;;;;;;5057154;28;20056;-76
2023/08/04 05:38:46;;;;;;;0.10;0.10;;;21.30;99.90;;;;;;5057162;28;20048;-79
2023/08/04 05:41:12;;;;;;;0.10;0.10;;;21.50;99.90;;;;;;5057199;28;20025;-80
2023/08/04 05:43:37;;;;;;;0.20;0.20;;;21.80;99.90;;;;;;5057156;28;20025;-75
2023/08/04 05:46:03;;;;;;;0.10;0.10;;;22.00;99.90;;;;;;5058293;28;20427;-77
2023/08/04 05:48:30;;;;;;;0.10;0.10;;;22.10;99.90;;;;;;5058665;28;20024;-77
2023/08/04 05:50:56;;;;;;;0.10;0.10;;;20.70;99.90;;;;;;5058359;28;20051;-83
2023/08/04 05:53:22;;;;;;;0.20;0.20;;;22.30;99.90;;;;;;5058455;28;20621;-76
2023/08/04 05:55:48;;;;;;;0.10;0.10;;;22.40;99.90;;;;;;5039339;28;20686;-77
2023/08/04 05:58:14;;;;;;;0.10;0.10;;;22.60;99.90;;;;;;5057676;28;20229;-80
2023/08/04 06:00:39;;;;;;;0.10;0.10;;;22.80;99.90;;;;;;5058136;28;20115;-77
2023/08/04 06:03:05;;;;;;;0.10;0.10;;;22.90;99.90;;;;;;5058256;28;20514;-80
2023/08/04 06:05:31;;;;;;;0.10;0.10;;;23.10;99.90;;;;;;5057075;28;20683;-77
2023/08/04 06:07:57;;;;;;;0.10;0.10;;;22.90;99.90;;;;;;5057829;28;20013;-77
2023/08/04 06:10:23;;;;;;;0.10;0.10;;;23.10;99.90;;;;;;5057884;28;20043;-76
2023/08/04 06:12:49;;;;;;;0.10;0.10;;;23.10;99.90;;;;;;5058160;28;20082;-81
2023/08/04 06:15:16;;;;;;;0.20;0.20;;;23.10;99.90;;;;;;5057857;28;20024;-80
2023/08/04 06:17:43;;;;;;;0.30;0.30;;;23.20;99.90;;;;;;5058160;28;20044;-77
2023/08/04 06:20:09;;;;;;;0.10;0.10;;;23.30;99.90;;;;;;5057610;28;20017;-76
2023/08/04 06:22:36;;;;;;;0.70;0.70;;;23.40;99.90;;;;;;5057471;28;20085;-80
2023/08/04 06:25:03;;;;;;;0.10;0.10;;;22.70;99.90;;;;;;5057834;28;20563;-78
2023/08/04 06:27:29;;;;;;;0.10;0.10;;;23.70;99.90;;;;;;5057981;28;20035;-77
2023/08/04 06:29:55;;;;;;;0.10;0.10;;;23.80;99.90;;;;;;5057953;28;20020;-76
2023/08/04 06:32:21;;;;;;;0.05;0.05;;;23.90;99.90;;;;;;5057826;28;20029;-77
2023/08/04 06:34:47;;;;;;;0.10;0.10;;;24.00;99.90;;;;;;5057443;28;20047;-76
2023/08/04 06:37:12;;;;;;;0.10;0.10;;;24.10;99.90;;;;;;5057526;28;20732;-76
2023/08/04 06:39:38;;;;;;;0.20;0.20;;;24.20;99.90;;;;;;5057762;28;20103;-77
2023/08/04 06:42:04;;;;;;;0.52;0.35;;;24.30;99.90;;;;;;5039732;28;20671;-77
2023/08/04 06:44:30;;;;;;;1.10;0.77;;;24.30;99.90;;;;;;5057494;28;20005;-80
2023/08/04 06:46:56;;;;;;;1.80;0.80;;;24.20;99.90;;;;;;5039000;28;20032;-81
2023/08/04 06:49:22;;;;;;;0.10;0.10;;;24.20;99.90;;;;;;5057024;28;20645;-75
2023/08/04 06:51:49;;;;;;;0.10;0.10;;;24.30;99.90;;;;;;5057258;28;20624;-75
2023/08/04 06:54:16;;;;;;;0.10;0.10;;;24.40;99.90;;;;;;5038605;28;20037;-77
2023/08/04 06:56:42;;;;;;;0.20;0.20;;;24.50;99.90;;;;;;5039003;28;20043;-77
2023/08/04 06:59:08;;;;;;;0.32;0.30;;;24.50;99.90;;;;;;5057722;28;20020;-78
2023/08/04 07:01:34;;;;;;;0.20;0.20;;;24.60;99.90;;;;;;5057269;28;20558;-77
2023/08/04 07:03:59;;;;;;;0.10;0.10;;;24.70;99.90;;;;;;5058006;28;20016;-81
2023/08/04 07:06:25;;;;;;;0.20;0.20;;;24.90;99.90;;;;;;5057750;28;20032;-84
2023/08/04 07:08:51;;;;;;;0.10;0.10;;;25.00;99.90;;;;;;5059727;28;20023;-78
2023/08/04 07:11:20;;;;;;;0.10;0.10;;;25.10;99.90;;;;;;5039995;28;20317;-80
2023/08/04 07:13:46;;;;;;;0.15;0.15;;;;;;;;;;5038432;28;20324;-79
2023/08/04 07:16:12;;;;;;;0.00;0.00;;;25.30;99.90;;;;;;5038373;28;20024;-80
2023/08/04 07:18:41;;;;;;;0.47;0.47;;;25.40;99.90;;;;;;5056244;28;20325;-79
2023/08/04 07:21:14;;;;;;;0.10;0.10;;;25.50;99.90;;;;;;5040828;28;20027;-82
2023/08/04 07:23:41;;;;;;;0.10;0.10;;;25.60;99.90;;;;;;5041897;28;20039;-84
2023/08/04 07:26:08;;;;;;;0.10;0.10;;;25.20;99.90;;;;;;5047011;28;20033;-83
2023/08/04 07:28:46;;;;;;;0.10;0.10;;;25.60;99.90;;;;;;5062237;28;20020;-78
2023/08/04 07:31:22;;;;;;;1.65;1.65;;;25.70;99.90;;;;;;5060238;28;20096;-78
2023/08/04 07:33:48;;;;;;;0.10;0.10;;;;;;;;;;5037777;28;20056;-78
2023/08/04 07:36:14;;;;;;;0.20;0.20;;;25.90;99.90;;;;;;5038207;28;20328;-86
2023/08/04 07:38:55;;;;;;;0.10;0.10;;;26.10;99.90;;;;;;5039575;28;20021;-79
2023/08/04 07:41:27;;;;;;;0.00;0.00;;;26.30;99.90;;;;;;5037953;28;20131;-79
2023/08/04 07:43:53;;;;;;;0.07;0.07;;;24.80;99.90;;;;;;5011575;23;20413;-82
2023/08/04 07:46:24;;;;;;;0.10;0.10;;;26.40;99.90;;;;;;5000519;28;20469;-79
2023/08/04 07:48:51;;;;;;;1.00;0.90;;;26.40;99.90;;;;;;5020212;23;20049;-80
2023/08/04 07:51:19;;;;;;;0.20;0.20;;;26.60;99.90;;;;;;5017485;28;20044;-79
2023/08/04 07:53:46;;;;;;;0.10;0.10;;;26.70;99.90;;;;;;5019465;28;20083;-81
2023/08/04 07:56:12;;;;;;;0.13;0.13;;;28.50;99.90;;;;;;5020250;28;20021;-85
2023/08/04 07:58:38;;;;;;;0.20;0.20;;;27.00;99.90;;;;;;5019418;28;20108;-79
2023/08/04 08:01:04;;;;;;;0.10;0.10;;;27.10;99.90;;;;;;5017840;28;20112;-79
2023/08/04 08:03:36;;;;;;;0.22;0.22;;;27.20;99.90;;;;;;5017448;28;20030;-79
2023/08/04 08:06:03;;;;;;;0.00;0.00;;;27.40;99.90;;;;;;5018019;28;20518;-79
2023/08/04 08:08:30;;;;;;;0.20;0.20;;;27.50;99.90;;;;;;5017639;28;20041;-78
2023/08/04 08:10:56;;;;;;;0.52;0.47;;;27.70;99.40;;;;;;5019226;28;20018;-79
2023/08/04 08:13:22;;;;;;;0.08;0.08;;;27.90;99.20;;;;;;5019132;28;20028;-82
2023/08/04 08:15:49;;;;;;;0.30;0.30;;;27.80;99.60;;;;;;5016722;28;20029;-79
2023/08/04 08:18:15;;;;;;;0.10;0.10;;;28.70;98.70;;;;;;5017067;28;20404;-80
2023/08/04 08:20:45;;;;;;;0.98;0.98;;;28.20;98.40;;;;;;5017112;28;20030;-78
2023/08/04 08:23:21;;;;;;;;;;;;;;;;;;;;;
2023/08/04 08:25:47;;;;;;;0.15;0.15;;;28.40;97.30;;;;;;5018859;28;20369;-78
2023/08/04 08:28:15;;;;;;;0.20;0.20;;;25.90;96.50;;;;;;5019174;28;20043;-78
2023/08/04 08:30:41;;;;;;;0.17;0.17;;;28.50;97.70;;;;;;5017619;28;20341;-78
2023/08/04 08:33:17;;;;;;;0.00;0.00;;;28.60;97.20;;;;;;5018016;28;20028;-79
2023/08/04 08:35:45;;;;;;;0.10;0.10;;;28.80;97.00;;;;;;5017382;28;20045;-78
2023/08/04 08:38:11;;;;;;;0.40;0.20;;;28.70;97.70;;;;;;5018448;28;20112;-78
2023/08/04 08:40:37;;;;;;;0.20;0.20;;;28.80;97.30;;;;;;5017041;28;20141;-80
2023/08/04 08:43:05;;;;;;;0.10;0.10;;;28.90;97.20;;;;;;5018139;28;20037;-77
2023/08/04 08:45:34;;;;;;;0.10;0.10;;;29.10;96.90;;;;;;5017063;28;20025;-78
2023/08/04 08:48:00;;;;;;;0.30;0.30;;;29.10;96.40;;;;;;5016532;28;20586;-78
2023/08/04 08:50:38;;;;;;;0.10;0.05;;;29.30;95.40;;;;;;5023751;23;20049;-78
2023/08/04 08:53:07;;;;;;;0.10;0.10;;;29.30;95.80;;;;;;5017811;28;20048;-83
2023/08/04 08:55:34;;;;;;;0.03;0.03;;;29.50;95.50;;;;;;5018455;28;20380;-76
2023/08/04 08:58:01;;;;;;;0.20;0.20;;;29.50;95.50;;;;;;5019407;28;20348;-80
2023/08/04 09:00:28;;;;;;;0.45;0.25;;;29.40;95.90;;;;;;5019017;28;20217;-76
2023/08/04 09:02:55;;;;;;;0.05;0.05;;;29.40;95.30;;;;;;5018607;28;20041;-78
2023/08/04 09:05:21;;;;;;;0.10;0.10;;;29.60;95.60;;;;;;5018325;28;20021;-76
2023/08/04 09:07:51;;;;;;;0.10;0.10;;;29.80;95.50;;;;;;5017515;28;20029;-84
2023/08/04 09:10:16;;;;;;;0.20;0.20;;;29.90;94.80;;;;;;5019137;28;20025;-81
2023/08/04 09:12:46;;;;;;;0.00;0.00;;;;;;;;;;5018776;28;20695;-84
2023/08/04 09:15:12;;;;;;;0.13;0.10;;;30.00;92.70;;;;;;5018891;28;20052;-79
2023/08/04 09:17:40;;;;;;;0.70;0.55;;;30.20;93.70;;;;;;5017844;28;20064;-78
2023/08/04 09:20:08;;;;;;;0.40;0.40;;;30.40;93.60;;;;;;5017825;28;20032;-76
2023/08/04 09:22:43;;;;;;;0.00;0.00;;;30.30;93.60;;;;;;5017898;28;20073;-79
2023/08/04 09:25:10;;;;;;;0.47;0.43;;;30.30;93.90;;;;;;5018775;28;20022;-79
2023/08/04 09:27:41;;;;;;;0.85;0.45;;;30.40;92.50;;;;;;5019059;28;20029;-85
2023/08/04 09:30:11;;;;;;;0.47;0.30;;;30.50;92.70;;;;;;5019186;28;20131;-88
2023/08/04 09:32:51;;;;;;;1.27;0.55;;;31.30;92.50;;;;;;5019152;28;20030;-79
2023/08/04 09:35:17;;;;;;;0.15;0.15;;;31.50;92.90;;;;;;5018932;28;20730;-76
2023/08/04 09:37:43;;;;;;;0.20;0.20;;;30.80;92.70;;;;;;5018647;28;20029;-77
2023/08/04 09:40:19;;;;;;;1.65;1.55;;;30.90;92.90;;;;;;5019134;28;20022;-78
2023/08/04 09:42:46;;;;;;;1.25;0.85;;;31.20;91.60;;;;;;5017194;28;20040;-83
2023/08/04 09:45:14;;;;;;;0.10;0.10;;;31.20;91.00;;;;;;5019311;28;20022;-85
2023/08/04 09:47:49;;;;;;;0.57;0.47;;;31.30;90.70;;;;;;5017536;28;20276;-77
2023/08/04 09:50:28;;;;;;;0.70;0.55;;;31.40;90.10;;;;;;5023234;28;20037;-77
2023/08/04 09:53:02;;;;;;;0.20;0.20;;;27.50;86.80;;;;;;5040384;28;20124;-82
2023/08/04 09:55:36;;;;;;;0.10;0.10;;;31.60;90.40;;;;;;5040813;28;20019;-79
2023/08/04 09:58:05;;;;;;;0.28;0.25;;;31.70;90.90;;;;;;5040483;28;20115;-78
2023/08/04 10:00:31;;;;;;;0.43;0.43;;;31.90;90.30;;;;;;5040455;28;20020;-83
2023/08/04 10:02:57;;;;;;;0.32;0.32;;;31.90;89.90;;;;;;5039905;28;20663;-78
2023/08/04 10:05:27;;;;;;;0.22;0.20;;;31.90;88.90;;;;;;5040297;28;20024;-78
2023/08/04 10:07:54;;;;;;;0.20;0.20;;;32.00;89.80;;;;;;5058495;28;20017;-77
2023/08/04 10:10:23;;;;;;;0.22;0.22;;;32.00;88.50;;;;;;5040811;28;20053;-77
2023/08/04 10:13:14;;;;;;;1.13;0.68;;;32.20;90.00;;;;;;5041509;28;20736;-78
2023/08/04 10:15:40;;;;;;;0.17;0.17;;;32.40;89.70;;;;;;5040060;28;20070;-83
2023/08/04 10:18:08;;;;;;;0.10;0.10;;;32.60;84.30;;;;;;5039714;28;20301;-79
2023/08/04 10:20:39;;;;;;;0.10;0.10;;;32.80;84.80;;;;;;5039955;28;20102;-79
2023/08/04 10:23:05;;;;;;;0.88;0.80;;;32.50;84.40;;;;;;5040321;28;20040;-79
2023/08/04 10:25:31;;;;;;;0.20;0.13;;;32.60;85.30;;;;;;5041785;28;20021;-86
2023/08/04 10:27:58;;;;;;;0.35;0.30;;;32.80;84.40;;;;;;5040857;28;20411;-79
2023/08/04 10:30:24;;;;;;;0.10;0.10;;;33.20;83.30;;;;;;5058210;28;20013;-79
2023/08/04 10:32:50;;;;;;;0.10;0.10;;;33.40;81.90;;;;;;5040247;28;20020;-91
2023/08/04 10:35:21;;;;;;;0.10;0.10;;;33.60;81.20;;;;;;5041317;28;20043;-78
2023/08/04 10:37:55;;;;;;;0.00;0.00;;;33.80;80.60;;;;;;5042328;28;20024;-80
2023/08/04 10:40:28;;;;;;;0.63;0.60;;;33.90;80.40;;;;;;5058863;28;20051;-89
2023/08/04 10:43:20;;;;;;;0.10;0.10;;;33.80;79.30;;;;;;5058169;28;20036;-84
2023/08/04 10:45:52;;;;;;;0.38;0.30;;;33.90;78.20;;;;;;5058510;28;20056;-83
2023/08/04 10:48:21;;;;;;;0.30;0.20;;;33.90;76.80;;;;;;5058692;28;20016;-81
2023/08/04 10:51:10;;;;;;;0.08;0.08;;;34.00;78.40;;;;;;5057571;28;20059;-79
2023/08/04 10:53:38;;;;;;;0.20;0.20;;;30.80;75.50;;;;;;5040156;28;20107;-78
2023/08/04 10:56:07;;;;;;;0.75;0.60;;;34.30;78.00;;;;;;5043613;28;20017;-78
2023/08/04 10:58:43;;;;;;;0.57;0.57;;;32.90;76.80;;;;;;5044223;28;20061;-78
2023/08/04 11:01:18;;;;;;;0.47;0.30;;;34.50;78.40;;;;;;5043696;28;20037;-79
2023/08/04 11:03:51;;;;;;;0.20;0.20;;;34.40;78.30;;;;;;5043124;28;20035;-78
2023/08/04 11:06:18;;;;;;;;;;;34.30;78.40;;;;;;5044775;28;20303;-77
2023/08/04 11:08:43;;;;;;;0.35;0.35;;;34.50;75.30;;;;;;5043706;28;19912;-76
2023/08/04 11:11:09;;;;;;;0.30;0.30;;;34.70;77.10;;;;;;5043338;28;20586;-78
2023/08/04 11:13:39;;;;;;;0.10;0.10;;;34.60;76.20;;;;;;5043824;28;20048;-79
2023/08/04 11:16:13;;;;;;;0.35;0.35;;;35.20;75.50;;;;;;5043714;28;20020;-78
2023/08/04 11:18:42;;;;;;;0.10;0.10;;;35.10;75.10;;;;;;5042988;28;20028;-79
2023/08/04 11:21:14;;;;;;;0.50;0.50;;;32.80;74.80;;;;;;5043448;28;20037;-80
2023/08/04 11:23:42;;;;;;;0.15;0.15;;;35.20;75.70;;;;;;5042541;28;20035;-78
2023/08/04 11:26:08;;;;;;;0.10;0.10;;;37.00;76.60;;;;;;5042336;28;20031;-79
2023/08/04 11:28:35;;;;;;;0.10;0.10;;;35.80;75.50;;;;;;5042730;28;20575;-79
2023/08/04 11:31:06;;;;;;;5.57;0.73;;;35.80;74.90;;;;;;5043043;28;20027;-81
2023/08/04 11:33:44;;;;;;;1.80;1.25;;;36.30;75.10;;;;;;5042572;28;20040;-79
2023/08/04 11:36:16;;;;;;;0.15;0.15;;;36.50;72.80;;;;;;5043422;28;20027;-81
2023/08/04 11:38:52;;;;;;;0.20;0.20;;;36.50;74.40;;;;;;5042704;28;20731;-81
2023/08/04 11:41:21;;;;;;;0.63;0.35;;;36.60;73.40;;;;;;5042793;28;20447;-82
2023/08/04 11:43:47;;;;;;;0.15;0.15;;;36.60;71.60;;;;;;5042700;28;20048;-78
2023/08/04 11:46:16;;;;;;;0.40;0.40;;;36.50;72.20;;;;;;5042541;28;20627;-78
2023/08/04 11:48:41;;;;;;;0.10;0.10;;;37.20;73.00;;;;;;5042577;28;20034;-90
2023/08/04 11:51:12;;;;;;;0.10;0.10;;;37.50;70.70;;;;;;5043294;28;20040;-79
2023/08/04 11:53:38;;;;;;;0.45;0.30;;;37.60;70.80;;;;;;5042228;28;20056;-87
2023/08/04 11:56:13;;;;;;;0.38;0.38;;;38.00;71.00;;;;;;5060487;28;20048;-88
2023/08/04 11:58:40;;;;;;;0.30;0.30;;;38.00;68.70;;;;;;5042512;28;20020;-78
2023/08/04 12:01:29;;;;;;;0.20;0.20;;;39.00;69.70;;;;;;5042808;28;20017;-83
2023/08/04 12:03:55;;;;;;;0.88;0.43;;;38.10;68.30;;;;;;5043020;28;20619;-84
2023/08/04 12:06:26;;;;;;;1.38;0.63;;;38.80;68.90;;;;;;5041432;28;20028;-79
2023/08/04 12:09:04;;;;;;;0.20;0.20;;;38.40;68.80;;;;;;5042291;28;20021;-81
2023/08/04 12:11:47;;;;;;;0.20;0.20;;;38.50;70.50;;;;;;5042594;28;20071;-78
2023/08/04 12:14:13;;;;;;;0.47;0.47;;;38.90;68.90;;;;;;5056788;28;20094;-79
2023/08/04 12:16:51;;;;;;;0.38;0.38;;;39.40;68.70;;;;;;5057239;28;20033;-81
2023/08/04 12:19:18;;;;;;;0.10;0.10;;;39.70;68.30;;;;;;5040598;28;20586;-85
2023/08/04 12:21:44;;;;;;;0.45;0.45;;;40.30;65.70;;;;;;5056999;28;20024;-79
2023/08/04 12:24:19;;;;;;;0.47;0.38;;;40.40;65.40;;;;;;5057401;28;20050;-80
2023/08/04 12:26:45;;;;;;;0.35;0.30;;;40.70;66.10;;;;;;5040434;28;20706;-86
2023/08/04 12:29:12;;;;;;;0.73;0.52;;;41.00;65.20;;;;;;5057415;28;20054;-92
2023/08/04 12:31:38;;;;;;;0.10;0.10;;;41.20;64.20;;;;;;5040683;28;20032;-87
2023/08/04 12:34:09;;;;;;;0.20;0.20;;;41.30;63.10;;;;;;5057520;28;20053;-80
2023/08/04 12:36:35;;;;;;;0.47;0.47;;;41.60;61.60;;;;;;5041651;28;20032;-79
2023/08/04 12:39:03;;;;;;;0.55;0.35;;;41.90;60.50;;;;;;5057285;28;20266;-80
2023/08/04 12:41:32;;;;;;;0.47;0.30;;;41.90;60.50;;;;;;5040194;28;20131;-83
2023/08/04 12:43:58;;;;;;;0.55;0.38;;;42.00;60.00;;;;;;5057551;28;20164;-81
2023/08/04 12:46:27;;;;;;;0.20;0.20;;;41.80;62.40;;;;;;5056333;28;20055;-88
2023/08/04 12:48:56;;;;;;;0.10;0.10;;;42.50;60.70;;;;;;5056636;28;20020;-81
2023/08/04 12:51:32;;;;;;;0.40;0.40;;;43.00;60.30;;;;;;5057057;28;20132;-79
2023/08/04 12:53:58;;;;;;;0.43;0.43;;;43.70;60.30;;;;;;5060242;28;20056;-83